sensor_id;sensor_type;location;lat;lon;timestamp;temperature;humidity
921;DHT22;447;51.332;6.778;2023-06-26T00:01:53;31.50;54.80
921;DHT22;447;51.332;6.778;2023-06-26T00:04:18;31.40;54.80
921;DHT22;447;51.332;6.778;2023-06-26T00:06:44;31.40;54.80
921;DHT22;447;51.332;6.778;2023-06-26T00:09:13;31.40;54.80
921;DHT22;447;51.332;6.778;2023-06-26T00:11:41;31.40;54.80
921;DHT22;447;51.332;6.778;2023-06-26T00:14:09;31.30;54.80
921;DHT22;447;51.332;6.778;2023-06-26T00:16:36;31.30;54.80
921;DHT22;447;51.332;6.778;2023-06-26T00:19:01;31.30;54.80
921;DHT22;447;51.332;6.778;2023-06-26T00:21:30;31.30;54.90
921;DHT22;447;51.332;6.778;2023-06-26T00:23:59;31.20;54.90
921;DHT22;447;51.332;6.778;2023-06-26T00:26:25;31.30;54.90
921;DHT22;447;51.332;6.778;2023-06-26T00:28:51;31.30;54.90
921;DHT22;447;51.332;6.778;2023-06-26T00:31:17;31.20;54.90
921;DHT22;447;51.332;6.778;2023-06-26T00:33:43;31.20;55.00
921;DHT22;447;51.332;6.778;2023-06-26T00:36:09;31.20;55.00
921;DHT22;447;51.332;6.778;2023-06-26T00:38:38;31.20;55.00
921;DHT22;447;51.332;6.778;2023-06-26T00:41:05;31.20;55.00
921;DHT22;447;51.332;6.778;2023-06-26T00:43:40;31.20;55.00
921;DHT22;447;51.332;6.778;2023-06-26T00:46:13;31.10;55.00
921;DHT22;447;51.332;6.778;2023-06-26T00:48:43;31.10;55.00
921;DHT22;447;51.332;6.778;2023-06-26T00:51:10;31.10;55.10
921;DHT22;447;51.332;6.778;2023-06-26T00:53:36;31.10;55.10
921;DHT22;447;51.332;6.778;2023-06-26T00:56:05;31.10;55.10
921;DHT22;447;51.332;6.778;2023-06-26T00:58:31;31.10;55.10
921;DHT22;447;51.332;6.778;2023-06-26T01:00:57;31.00;55.10
921;DHT22;447;51.332;6.778;2023-06-26T01:03:25;31.00;55.10
921;DHT22;447;51.332;6.778;2023-06-26T01:05:55;31.00;55.10
921;DHT22;447;51.332;6.778;2023-06-26T01:08:22;31.00;55.10
921;DHT22;447;51.332;6.778;2023-06-26T01:10:54;30.90;55.10
921;DHT22;447;51.332;6.778;2023-06-26T01:13:20;30.90;55.10
921;DHT22;447;51.332;6.778;2023-06-26T01:15:51;30.90;55.10
921;DHT22;447;51.332;6.778;2023-06-26T01:18:19;30.90;55.20
921;DHT22;447;51.332;6.778;2023-06-26T01:20:45;30.90;55.20
921;DHT22;447;51.332;6.778;2023-06-26T01:23:22;30.80;55.10
921;DHT22;447;51.332;6.778;2023-06-26T01:28:42;30.80;55.20
921;DHT22;447;51.332;6.778;2023-06-26T01:31:11;30.80;55.20
921;DHT22;447;51.332;6.778;2023-06-26T01:33:39;30.80;55.30
921;DHT22;447;51.332;6.778;2023-06-26T01:36:10;30.80;55.30
921;DHT22;447;51.332;6.778;2023-06-26T01:38:39;30.70;55.20
921;DHT22;447;51.332;6.778;2023-06-26T01:41:07;30.70;55.20
921;DHT22;447;51.332;6.778;2023-06-26T01:46:40;30.70;55.30
921;DHT22;447;51.332;6.778;2023-06-26T01:52:21;30.60;55.30
921;DHT22;447;51.332;6.778;2023-06-26T01:55:12;30.60;55.40
921;DHT22;447;51.332;6.778;2023-06-26T01:57:42;30.60;55.40
921;DHT22;447;51.332;6.778;2023-06-26T02:00:19;30.50;55.30
921;DHT22;447;51.332;6.778;2023-06-26T02:02:47;30.50;55.40
921;DHT22;447;51.332;6.778;2023-06-26T02:05:15;30.50;55.40
921;DHT22;447;51.332;6.778;2023-06-26T02:07:42;30.50;55.40
921;DHT22;447;51.332;6.778;2023-06-26T02:10:12;30.40;55.30
921;DHT22;447;51.332;6.778;2023-06-26T02:12:39;30.50;55.40
921;DHT22;447;51.332;6.778;2023-06-26T02:15:07;30.50;55.40
921;DHT22;447;51.332;6.778;2023-06-26T02:17:33;30.40;55.40
921;DHT22;447;51.332;6.778;2023-06-26T02:20:00;30.40;55.40
921;DHT22;447;51.332;6.778;2023-06-26T02:22:31;30.40;55.40
921;DHT22;447;51.332;6.778;2023-06-26T02:24:57;30.40;55.40
921;DHT22;447;51.332;6.778;2023-06-26T02:27:23;30.30;55.20
921;DHT22;447;51.332;6.778;2023-06-26T02:29:49;30.40;55.30
921;DHT22;447;51.332;6.778;2023-06-26T02:32:17;30.30;55.20
921;DHT22;447;51.332;6.778;2023-06-26T02:34:45;30.30;55.30
921;DHT22;447;51.332;6.778;2023-06-26T02:37:13;30.30;55.30
921;DHT22;447;51.332;6.778;2023-06-26T02:39:41;30.30;55.30
921;DHT22;447;51.332;6.778;2023-06-26T02:42:10;30.30;55.30
921;DHT22;447;51.332;6.778;2023-06-26T02:44:36;30.30;55.30
921;DHT22;447;51.332;6.778;2023-06-26T02:47:02;30.20;55.20
921;DHT22;447;51.332;6.778;2023-06-26T02:49:31;30.20;55.20
921;DHT22;447;51.332;6.778;2023-06-26T02:51:59;30.20;55.30
921;DHT22;447;51.332;6.778;2023-06-26T02:54:28;30.20;55.30
921;DHT22;447;51.332;6.778;2023-06-26T02:56:59;30.20;55.30
921;DHT22;447;51.332;6.778;2023-06-26T02:59:28;30.20;55.30
921;DHT22;447;51.332;6.778;2023-06-26T03:01:59;30.10;55.30
921;DHT22;447;51.332;6.778;2023-06-26T03:04:36;30.10;55.30
921;DHT22;447;51.332;6.778;2023-06-26T03:07:04;30.10;55.30
921;DHT22;447;51.332;6.778;2023-06-26T03:09:33;30.10;55.30
921;DHT22;447;51.332;6.778;2023-06-26T03:11:59;30.10;55.40
921;DHT22;447;51.332;6.778;2023-06-26T03:14:25;30.00;55.30
921;DHT22;447;51.332;6.778;2023-06-26T03:16:53;30.10;55.40
921;DHT22;447;51.332;6.778;2023-06-26T03:19:21;30.00;55.30
921;DHT22;447;51.332;6.778;2023-06-26T03:22:28;30.00;55.30
921;DHT22;447;51.332;6.778;2023-06-26T03:24:53;29.90;55.30
921;DHT22;447;51.332;6.778;2023-06-26T03:27:21;29.90;55.30
921;DHT22;447;51.332;6.778;2023-06-26T03:29:48;29.90;55.40
921;DHT22;447;51.332;6.778;2023-06-26T03:32:15;29.90;55.40
921;DHT22;447;51.332;6.778;2023-06-26T03:34:41;29.90;55.40
921;DHT22;447;51.332;6.778;2023-06-26T03:37:07;29.90;55.40
921;DHT22;447;51.332;6.778;2023-06-26T03:39:33;29.90;55.40
921;DHT22;447;51.332;6.778;2023-06-26T03:41:59;29.90;55.40
921;DHT22;447;51.332;6.778;2023-06-26T03:44:28;29.80;55.40
921;DHT22;447;51.332;6.778;2023-06-26T03:46:56;29.80;55.40
921;DHT22;447;51.332;6.778;2023-06-26T03:49:23;29.80;55.40
921;DHT22;447;51.332;6.778;2023-06-26T03:51:52;29.80;55.50
921;DHT22;447;51.332;6.778;2023-06-26T03:54:22;29.80;55.50
921;DHT22;447;51.332;6.778;2023-06-26T03:56:50;29.80;55.60
921;DHT22;447;51.332;6.778;2023-06-26T03:59:19;29.80;55.60
921;DHT22;447;51.332;6.778;2023-06-26T04:01:45;29.70;55.70
921;DHT22;447;51.332;6.778;2023-06-26T04:04:11;29.70;55.70
921;DHT22;447;51.332;6.778;2023-06-26T04:06:36;29.70;55.70
921;DHT22;447;51.332;6.778;2023-06-26T04:09:05;29.70;55.80
921;DHT22;447;51.332;6.778;2023-06-26T04:11:31;29.70;55.80
921;DHT22;447;51.332;6.778;2023-06-26T04:13:57;29.70;55.80
921;DHT22;447;51.332;6.778;2023-06-26T04:16:23;29.60;55.80
921;DHT22;447;51.332;6.778;2023-06-26T04:18:51;29.60;55.80
921;DHT22;447;51.332;6.778;2023-06-26T04:21:18;29.60;55.90
921;DHT22;447;51.332;6.778;2023-06-26T04:23:43;29.60;56.00
921;DHT22;447;51.332;6.778;2023-06-26T04:26:10;29.60;56.00
921;DHT22;447;51.332;6.778;2023-06-26T04:28:38;29.60;56.10
921;DHT22;447;51.332;6.778;2023-06-26T04:31:04;29.50;56.00
921;DHT22;447;51.332;6.778;2023-06-26T04:33:30;29.50;56.10
921;DHT22;447;51.332;6.778;2023-06-26T04:35:59;29.50;56.10
921;DHT22;447;51.332;6.778;2023-06-26T04:38:29;29.50;56.20
921;DHT22;447;51.332;6.778;2023-06-26T04:40:55;29.50;56.20
921;DHT22;447;51.332;6.778;2023-06-26T04:43:21;29.50;56.20
921;DHT22;447;51.332;6.778;2023-06-26T04:45:47;29.40;56.20
921;DHT22;447;51.332;6.778;2023-06-26T04:48:13;29.40;56.20
921;DHT22;447;51.332;6.778;2023-06-26T04:50:42;29.40;56.20
921;DHT22;447;51.332;6.778;2023-06-26T04:53:08;29.40;56.30
921;DHT22;447;51.332;6.778;2023-06-26T04:55:34;29.40;56.20
921;DHT22;447;51.332;6.778;2023-06-26T04:58:02;29.30;56.20
921;DHT22;447;51.332;6.778;2023-06-26T05:00:31;29.40;56.20
921;DHT22;447;51.332;6.778;2023-06-26T05:02:57;29.30;56.20
921;DHT22;447;51.332;6.778;2023-06-26T05:05:29;29.30;56.20
921;DHT22;447;51.332;6.778;2023-06-26T05:07:58;29.30;56.30
921;DHT22;447;51.332;6.778;2023-06-26T05:10:24;29.30;56.20
921;DHT22;447;51.332;6.778;2023-06-26T05:12:50;29.30;56.30
921;DHT22;447;51.332;6.778;2023-06-26T05:15:18;29.20;56.20
921;DHT22;447;51.332;6.778;2023-06-26T05:17:44;29.20;56.20
921;DHT22;447;51.332;6.778;2023-06-26T05:20:10;29.20;56.20
921;DHT22;447;51.332;6.778;2023-06-26T05:22:37;29.20;56.30
921;DHT22;447;51.332;6.778;2023-06-26T05:25:04;29.20;56.30
921;DHT22;447;51.332;6.778;2023-06-26T05:27:33;29.20;56.20
921;DHT22;447;51.332;6.778;2023-06-26T05:30:02;29.20;56.30
921;DHT22;447;51.332;6.778;2023-06-26T05:32:30;29.20;56.30
921;DHT22;447;51.332;6.778;2023-06-26T05:35:03;29.20;56.30
921;DHT22;447;51.332;6.778;2023-06-26T05:37:33;29.20;56.30
921;DHT22;447;51.332;6.778;2023-06-26T05:40:02;29.10;56.30
921;DHT22;447;51.332;6.778;2023-06-26T05:42:29;29.10;56.30
921;DHT22;447;51.332;6.778;2023-06-26T05:44:56;29.10;56.30
921;DHT22;447;51.332;6.778;2023-06-26T05:47:22;29.10;56.20
921;DHT22;447;51.332;6.778;2023-06-26T05:49:48;29.10;56.20
921;DHT22;447;51.332;6.778;2023-06-26T05:52:16;29.10;56.20
921;DHT22;447;51.332;6.778;2023-06-26T05:54:43;29.10;56.30
921;DHT22;447;51.332;6.778;2023-06-26T05:57:12;29.00;56.20
921;DHT22;447;51.332;6.778;2023-06-26T05:59:40;29.00;56.30
921;DHT22;447;51.332;6.778;2023-06-26T06:02:07;29.00;56.30
921;DHT22;447;51.332;6.778;2023-06-26T06:04:33;29.00;56.30
921;DHT22;447;51.332;6.778;2023-06-26T06:06:59;29.00;56.30
921;DHT22;447;51.332;6.778;2023-06-26T06:09:52;28.90;56.30
921;DHT22;447;51.332;6.778;2023-06-26T06:12:18;29.00;56.40
921;DHT22;447;51.332;6.778;2023-06-26T06:14:44;28.90;56.30
921;DHT22;447;51.332;6.778;2023-06-26T06:17:12;28.90;56.40
921;DHT22;447;51.332;6.778;2023-06-26T06:19:40;28.90;56.40
921;DHT22;447;51.332;6.778;2023-06-26T06:22:06;28.90;56.50
921;DHT22;447;51.332;6.778;2023-06-26T06:24:32;28.90;56.50
921;DHT22;447;51.332;6.778;2023-06-26T06:27:02;28.80;56.50
921;DHT22;447;51.332;6.778;2023-06-26T06:29:31;28.80;56.50
921;DHT22;447;51.332;6.778;2023-06-26T06:31:57;28.80;57.10
921;DHT22;447;51.332;6.778;2023-06-26T06:34:27;28.80;56.60
921;DHT22;447;51.332;6.778;2023-06-26T06:36:55;28.80;56.60
921;DHT22;447;51.332;6.778;2023-06-26T06:39:24;28.80;56.60
921;DHT22;447;51.332;6.778;2023-06-26T06:41:50;28.80;56.60
921;DHT22;447;51.332;6.778;2023-06-26T06:44:19;28.70;56.70
921;DHT22;447;51.332;6.778;2023-06-26T06:46:46;28.80;56.80
921;DHT22;447;51.332;6.778;2023-06-26T06:49:12;28.80;56.80
921;DHT22;447;51.332;6.778;2023-06-26T06:51:39;28.70;56.70
921;DHT22;447;51.332;6.778;2023-06-26T06:54:05;28.70;56.70
921;DHT22;447;51.332;6.778;2023-06-26T06:56:31;28.70;56.80
921;DHT22;447;51.332;6.778;2023-06-26T06:58:57;28.70;56.80
921;DHT22;447;51.332;6.778;2023-06-26T07:01:23;28.70;56.80
921;DHT22;447;51.332;6.778;2023-06-26T07:03:51;28.70;56.80
921;DHT22;447;51.332;6.778;2023-06-26T07:10:26;28.70;56.90
921;DHT22;447;51.332;6.778;2023-06-26T07:12:52;28.70;56.90
921;DHT22;447;51.332;6.778;2023-06-26T07:15:18;28.70;57.00
921;DHT22;447;51.332;6.778;2023-06-26T07:17:44;28.70;57.00
921;DHT22;447;51.332;6.778;2023-06-26T07:20:10;28.60;56.90
921;DHT22;447;51.332;6.778;2023-06-26T07:22:41;28.70;57.00
921;DHT22;447;51.332;6.778;2023-06-26T07:25:10;28.70;57.00
921;DHT22;447;51.332;6.778;2023-06-26T07:27:37;28.70;57.10
921;DHT22;447;51.332;6.778;2023-06-26T07:30:04;28.70;57.10
921;DHT22;447;51.332;6.778;2023-06-26T07:32:30;28.70;57.10
921;DHT22;447;51.332;6.778;2023-06-26T07:34:56;28.70;57.10
921;DHT22;447;51.332;6.778;2023-06-26T07:37:22;28.60;57.00
921;DHT22;447;51.332;6.778;2023-06-26T07:39:49;28.70;57.30
921;DHT22;447;51.332;6.778;2023-06-26T07:42:18;28.70;57.30
921;DHT22;447;51.332;6.778;2023-06-26T07:44:44;28.70;57.20
921;DHT22;447;51.332;6.778;2023-06-26T07:47:10;28.70;57.30
921;DHT22;447;51.332;6.778;2023-06-26T07:49:36;28.70;57.50
921;DHT22;447;51.332;6.778;2023-06-26T07:52:05;28.60;57.40
921;DHT22;447;51.332;6.778;2023-06-26T07:54:31;28.60;57.50
921;DHT22;447;51.332;6.778;2023-06-26T07:56:59;28.60;57.40
921;DHT22;447;51.332;6.778;2023-06-26T07:59:31;28.60;57.50
921;DHT22;447;51.332;6.778;2023-06-26T08:01:57;28.60;57.40
921;DHT22;447;51.332;6.778;2023-06-26T08:04:27;28.60;57.40
921;DHT22;447;51.332;6.778;2023-06-26T08:06:54;28.60;57.40
921;DHT22;447;51.332;6.778;2023-06-26T08:09:23;28.60;57.40
921;DHT22;447;51.332;6.778;2023-06-26T08:11:54;28.70;57.50
921;DHT22;447;51.332;6.778;2023-06-26T08:14:20;28.70;57.40
921;DHT22;447;51.332;6.778;2023-06-26T08:16:47;28.70;57.40
921;DHT22;447;51.332;6.778;2023-06-26T08:19:14;28.70;57.40
921;DHT22;447;51.332;6.778;2023-06-26T08:21:41;28.70;57.40
921;DHT22;447;51.332;6.778;2023-06-26T08:24:07;28.70;57.70
921;DHT22;447;51.332;6.778;2023-06-26T08:26:34;28.70;57.50
921;DHT22;447;51.332;6.778;2023-06-26T08:29:00;28.70;58.40
921;DHT22;447;51.332;6.778;2023-06-26T08:31:26;28.70;58.70
921;DHT22;447;51.332;6.778;2023-06-26T08:33:52;28.60;58.50
921;DHT22;447;51.332;6.778;2023-06-26T08:36:18;28.50;58.80
921;DHT22;447;51.332;6.778;2023-06-26T08:38:44;28.30;59.10
921;DHT22;447;51.332;6.778;2023-06-26T08:41:10;28.20;59.50
921;DHT22;447;51.332;6.778;2023-06-26T08:43:36;28.10;59.70
921;DHT22;447;51.332;6.778;2023-06-26T08:46:02;28.00;59.80
921;DHT22;447;51.332;6.778;2023-06-26T08:48:32;28.00;59.70
921;DHT22;447;51.332;6.778;2023-06-26T08:51:11;27.90;59.60
921;DHT22;447;51.332;6.778;2023-06-26T08:53:49;27.90;59.60
921;DHT22;447;51.332;6.778;2023-06-26T08:56:20;27.90;60.10
921;DHT22;447;51.332;6.778;2023-06-26T08:58:53;28.00;59.40
921;DHT22;447;51.332;6.778;2023-06-26T09:01:20;28.00;59.30
921;DHT22;447;51.332;6.778;2023-06-26T09:03:46;28.10;59.20
921;DHT22;447;51.332;6.778;2023-06-26T09:06:12;28.20;59.10
921;DHT22;447;51.332;6.778;2023-06-26T09:08:42;28.20;58.90
921;DHT22;447;51.332;6.778;2023-06-26T09:11:08;28.20;58.80
921;DHT22;447;51.332;6.778;2023-06-26T09:13:34;28.30;58.70
921;DHT22;447;51.332;6.778;2023-06-26T09:16:05;28.30;58.60
921;DHT22;447;51.332;6.778;2023-06-26T09:18:32;28.40;58.50
921;DHT22;447;51.332;6.778;2023-06-26T09:20:59;28.40;58.40
921;DHT22;447;51.332;6.778;2023-06-26T09:23:26;28.40;58.30
921;DHT22;447;51.332;6.778;2023-06-26T09:25:55;28.40;58.30
921;DHT22;447;51.332;6.778;2023-06-26T09:28:21;28.50;58.20
921;DHT22;447;51.332;6.778;2023-06-26T09:30:47;28.50;58.10
921;DHT22;447;51.332;6.778;2023-06-26T09:33:18;28.60;58.10
921;DHT22;447;51.332;6.778;2023-06-26T09:35:45;28.50;58.00
921;DHT22;447;51.332;6.778;2023-06-26T09:38:12;28.60;58.00
921;DHT22;447;51.332;6.778;2023-06-26T09:40:39;28.60;58.00
921;DHT22;447;51.332;6.778;2023-06-26T09:43:06;28.60;57.90
921;DHT22;447;51.332;6.778;2023-06-26T09:45:39;28.70;57.90
921;DHT22;447;51.332;6.778;2023-06-26T09:48:53;28.70;57.90
921;DHT22;447;51.332;6.778;2023-06-26T09:51:23;28.70;57.90
921;DHT22;447;51.332;6.778;2023-06-26T09:53:49;28.70;57.80
921;DHT22;447;51.332;6.778;2023-06-26T09:56:17;28.70;57.80
921;DHT22;447;51.332;6.778;2023-06-26T09:58:44;28.70;57.70
921;DHT22;447;51.332;6.778;2023-06-26T10:01:10;28.70;57.60
921;DHT22;447;51.332;6.778;2023-06-26T10:03:43;28.80;57.80
921;DHT22;447;51.332;6.778;2023-06-26T10:06:09;28.70;57.80
921;DHT22;447;51.332;6.778;2023-06-26T10:08:41;28.80;57.80
921;DHT22;447;51.332;6.778;2023-06-26T10:11:11;28.80;57.70
921;DHT22;447;51.332;6.778;2023-06-26T10:13:45;28.80;57.70
921;DHT22;447;51.332;6.778;2023-06-26T10:16:40;28.80;57.60
921;DHT22;447;51.332;6.778;2023-06-26T10:19:14;28.90;57.50
921;DHT22;447;51.332;6.778;2023-06-26T10:21:41;28.90;57.40
921;DHT22;447;51.332;6.778;2023-06-26T10:24:08;28.90;57.40
921;DHT22;447;51.332;6.778;2023-06-26T10:27:19;28.90;57.30
921;DHT22;447;51.332;6.778;2023-06-26T10:36:31;29.00;57.10
921;DHT22;447;51.332;6.778;2023-06-26T10:39:04;29.00;57.10
921;DHT22;447;51.332;6.778;2023-06-26T10:41:38;29.10;57.10
921;DHT22;447;51.332;6.778;2023-06-26T10:44:15;29.10;57.00
921;DHT22;447;51.332;6.778;2023-06-26T10:46:54;29.10;56.80
921;DHT22;447;51.332;6.778;2023-06-26T10:49:24;29.10;56.80
921;DHT22;447;51.332;6.778;2023-06-26T10:51:51;29.10;56.30
921;DHT22;447;51.332;6.778;2023-06-26T10:54:20;29.20;56.50
921;DHT22;447;51.332;6.778;2023-06-26T10:56:50;29.20;56.30
921;DHT22;447;51.332;6.778;2023-06-26T10:59:21;29.20;56.10
921;DHT22;447;51.332;6.778;2023-06-26T11:01:59;29.20;56.10
921;DHT22;447;51.332;6.778;2023-06-26T11:04:46;29.20;56.00
921;DHT22;447;51.332;6.778;2023-06-26T11:07:18;29.30;55.90
921;DHT22;447;51.332;6.778;2023-06-26T11:12:37;29.30;55.80
921;DHT22;447;51.332;6.778;2023-06-26T11:15:08;29.30;55.80
921;DHT22;447;51.332;6.778;2023-06-26T11:17:37;29.30;55.70
921;DHT22;447;51.332;6.778;2023-06-26T11:20:09;29.30;55.50
921;DHT22;447;51.332;6.778;2023-06-26T11:22:37;29.30;55.30
921;DHT22;447;51.332;6.778;2023-06-26T11:25:04;29.40;55.40
921;DHT22;447;51.332;6.778;2023-06-26T11:27:41;29.40;55.10
921;DHT22;447;51.332;6.778;2023-06-26T11:30:08;29.40;55.10
921;DHT22;447;51.332;6.778;2023-06-26T11:32:38;29.40;54.60
921;DHT22;447;51.332;6.778;2023-06-26T11:35:04;29.40;54.60
921;DHT22;447;51.332;6.778;2023-06-26T11:37:31;29.40;54.40
921;DHT22;447;51.332;6.778;2023-06-26T11:39:57;29.40;54.30
921;DHT22;447;51.332;6.778;2023-06-26T11:42:24;29.50;54.00
921;DHT22;447;51.332;6.778;2023-06-26T11:44:53;29.50;54.00
921;DHT22;447;51.332;6.778;2023-06-26T11:47:20;29.50;54.00
921;DHT22;447;51.332;6.778;2023-06-26T11:49:48;29.50;54.00
921;DHT22;447;51.332;6.778;2023-06-26T11:52:16;29.50;53.50
921;DHT22;447;51.332;6.778;2023-06-26T11:54:43;29.50;53.60
921;DHT22;447;51.332;6.778;2023-06-26T11:57:22;29.50;53.50
921;DHT22;447;51.332;6.778;2023-06-26T12:00:14;29.50;53.30
921;DHT22;447;51.332;6.778;2023-06-26T12:02:44;29.60;53.20
921;DHT22;447;51.332;6.778;2023-06-26T12:05:11;29.60;53.00
921;DHT22;447;51.332;6.778;2023-06-26T12:07:47;29.60;53.20
921;DHT22;447;51.332;6.778;2023-06-26T12:10:14;29.60;53.00
921;DHT22;447;51.332;6.778;2023-06-26T12:12:41;29.60;53.00
921;DHT22;447;51.332;6.778;2023-06-26T12:15:10;29.60;52.40
921;DHT22;447;51.332;6.778;2023-06-26T12:17:40;29.60;52.60
921;DHT22;447;51.332;6.778;2023-06-26T12:20:22;29.60;52.50
921;DHT22;447;51.332;6.778;2023-06-26T12:22:50;29.60;52.30
921;DHT22;447;51.332;6.778;2023-06-26T12:25:23;29.60;51.80
921;DHT22;447;51.332;6.778;2023-06-26T12:27:49;29.60;52.00
921;DHT22;447;51.332;6.778;2023-06-26T12:30:15;29.60;52.10
921;DHT22;447;51.332;6.778;2023-06-26T12:32:50;29.60;52.00
921;DHT22;447;51.332;6.778;2023-06-26T12:35:16;29.70;52.00
921;DHT22;447;51.332;6.778;2023-06-26T12:37:54;29.70;51.70
921;DHT22;447;51.332;6.778;2023-06-26T12:40:20;29.70;51.20
921;DHT22;447;51.332;6.778;2023-06-26T12:42:58;29.70;50.90
921;DHT22;447;51.332;6.778;2023-06-26T12:45:39;29.70;50.60
921;DHT22;447;51.332;6.778;2023-06-26T12:48:21;29.70;50.80
921;DHT22;447;51.332;6.778;2023-06-26T12:50:47;29.70;50.60
921;DHT22;447;51.332;6.778;2023-06-26T12:53:18;29.70;50.70
921;DHT22;447;51.332;6.778;2023-06-26T12:55:55;29.70;50.20
921;DHT22;447;51.332;6.778;2023-06-26T12:58:21;29.70;50.30
921;DHT22;447;51.332;6.778;2023-06-26T13:00:47;29.70;51.00
921;DHT22;447;51.332;6.778;2023-06-26T13:03:13;29.70;50.00
921;DHT22;447;51.332;6.778;2023-06-26T13:05:39;29.70;50.20
921;DHT22;447;51.332;6.778;2023-06-26T13:08:05;29.70;49.90
921;DHT22;447;51.332;6.778;2023-06-26T13:10:31;29.70;50.10
921;DHT22;447;51.332;6.778;2023-06-26T13:12:57;29.70;50.40
921;DHT22;447;51.332;6.778;2023-06-26T13:15:23;29.80;50.10
921;DHT22;447;51.332;6.778;2023-06-26T13:17:49;29.80;50.10
921;DHT22;447;51.332;6.778;2023-06-26T13:20:17;29.80;49.80
921;DHT22;447;51.332;6.778;2023-06-26T13:23:05;29.80;49.60
921;DHT22;447;51.332;6.778;2023-06-26T13:25:31;29.80;49.80
921;DHT22;447;51.332;6.778;2023-06-26T13:28:02;29.80;49.50
921;DHT22;447;51.332;6.778;2023-06-26T13:30:30;29.80;49.50
921;DHT22;447;51.332;6.778;2023-06-26T13:32:56;29.80;49.10
921;DHT22;447;51.332;6.778;2023-06-26T13:35:22;29.80;49.40
921;DHT22;447;51.332;6.778;2023-06-26T13:37:49;29.80;49.40
921;DHT22;447;51.332;6.778;2023-06-26T13:40:15;29.80;49.30
921;DHT22;447;51.332;6.778;2023-06-26T13:42:41;29.80;48.70
921;DHT22;447;51.332;6.778;2023-06-26T13:45:08;29.80;49.10
921;DHT22;447;51.332;6.778;2023-06-26T13:47:34;29.80;49.10
921;DHT22;447;51.332;6.778;2023-06-26T13:50:00;29.80;48.80
921;DHT22;447;51.332;6.778;2023-06-26T13:52:26;29.80;48.20
921;DHT22;447;51.332;6.778;2023-06-26T13:54:52;29.80;48.50
921;DHT22;447;51.332;6.778;2023-06-26T13:57:18;29.80;48.60
921;DHT22;447;51.332;6.778;2023-06-26T13:59:47;29.80;48.40
921;DHT22;447;51.332;6.778;2023-06-26T14:02:13;29.80;48.30
921;DHT22;447;51.332;6.778;2023-06-26T14:04:39;29.80;48.00
921;DHT22;447;51.332;6.778;2023-06-26T14:07:05;29.80;48.10
921;DHT22;447;51.332;6.778;2023-06-26T14:09:33;29.80;48.20
921;DHT22;447;51.332;6.778;2023-06-26T14:12:00;29.80;48.10
921;DHT22;447;51.332;6.778;2023-06-26T14:14:26;29.80;47.10
921;DHT22;447;51.332;6.778;2023-06-26T14:16:51;29.90;47.70
921;DHT22;447;51.332;6.778;2023-06-26T14:19:17;29.90;47.60
921;DHT22;447;51.332;6.778;2023-06-26T14:21:43;29.90;48.30
921;DHT22;447;51.332;6.778;2023-06-26T14:24:09;29.90;47.70
921;DHT22;447;51.332;6.778;2023-06-26T14:26:35;29.90;46.90
921;DHT22;447;51.332;6.778;2023-06-26T14:29:03;29.90;47.80
921;DHT22;447;51.332;6.778;2023-06-26T14:31:29;29.90;48.00
921;DHT22;447;51.332;6.778;2023-06-26T14:33:55;30.00;47.20
921;DHT22;447;51.332;6.778;2023-06-26T14:36:22;30.00;47.20
921;DHT22;447;51.332;6.778;2023-06-26T14:38:48;30.00;46.80
921;DHT22;447;51.332;6.778;2023-06-26T14:41:17;30.00;47.50
921;DHT22;447;51.332;6.778;2023-06-26T14:43:43;30.00;47.60
921;DHT22;447;51.332;6.778;2023-06-26T14:46:09;30.00;48.00
921;DHT22;447;51.332;6.778;2023-06-26T14:48:37;30.00;47.80
921;DHT22;447;51.332;6.778;2023-06-26T14:51:03;30.10;47.30
921;DHT22;447;51.332;6.778;2023-06-26T14:53:29;30.10;47.20
921;DHT22;447;51.332;6.778;2023-06-26T14:55:55;30.10;47.60
921;DHT22;447;51.332;6.778;2023-06-26T14:58:24;30.10;47.60
921;DHT22;447;51.332;6.778;2023-06-26T15:00:54;30.10;47.40
921;DHT22;447;51.332;6.778;2023-06-26T15:03:20;30.10;47.30
921;DHT22;447;51.332;6.778;2023-06-26T15:05:48;30.10;47.20
921;DHT22;447;51.332;6.778;2023-06-26T15:08:14;30.10;47.50
921;DHT22;447;51.332;6.778;2023-06-26T15:10:40;30.10;47.20
921;DHT22;447;51.332;6.778;2023-06-26T15:13:06;30.20;46.80
921;DHT22;447;51.332;6.778;2023-06-26T15:15:33;30.20;46.80
921;DHT22;447;51.332;6.778;2023-06-26T15:18:06;30.20;46.50
921;DHT22;447;51.332;6.778;2023-06-26T15:20:32;30.20;46.60
921;DHT22;447;51.332;6.778;2023-06-26T15:23:00;30.20;46.50
921;DHT22;447;51.332;6.778;2023-06-26T15:25:26;30.20;46.80
921;DHT22;447;51.332;6.778;2023-06-26T15:27:56;30.20;46.60
921;DHT22;447;51.332;6.778;2023-06-26T15:30:24;30.20;46.70
921;DHT22;447;51.332;6.778;2023-06-26T15:32:54;30.20;46.60
921;DHT22;447;51.332;6.778;2023-06-26T15:35:20;30.20;46.50
921;DHT22;447;51.332;6.778;2023-06-26T15:37:46;30.20;46.50
921;DHT22;447;51.332;6.778;2023-06-26T15:40:16;30.20;46.80
921;DHT22;447;51.332;6.778;2023-06-26T15:42:53;30.20;47.00
921;DHT22;447;51.332;6.778;2023-06-26T15:45:19;30.20;46.70
921;DHT22;447;51.332;6.778;2023-06-26T15:47:48;30.20;46.60
921;DHT22;447;51.332;6.778;2023-06-26T15:50:14;30.20;46.50
921;DHT22;447;51.332;6.778;2023-06-26T15:52:45;30.20;46.40
921;DHT22;447;51.332;6.778;2023-06-26T15:55:11;30.20;46.50
921;DHT22;447;51.332;6.778;2023-06-26T15:57:37;30.20;46.50
921;DHT22;447;51.332;6.778;2023-06-26T16:00:04;30.20;46.30
921;DHT22;447;51.332;6.778;2023-06-26T16:02:38;30.20;46.80
921;DHT22;447;51.332;6.778;2023-06-26T16:05:09;30.20;46.40
921;DHT22;447;51.332;6.778;2023-06-26T16:07:35;30.20;45.90
921;DHT22;447;51.332;6.778;2023-06-26T16:10:04;30.20;46.30
921;DHT22;447;51.332;6.778;2023-06-26T16:12:30;30.30;46.30
921;DHT22;447;51.332;6.778;2023-06-26T16:14:58;30.20;46.40
921;DHT22;447;51.332;6.778;2023-06-26T16:17:24;30.20;46.20
921;DHT22;447;51.332;6.778;2023-06-26T16:19:55;30.30;45.90
921;DHT22;447;51.332;6.778;2023-06-26T16:22:23;30.30;46.10
921;DHT22;447;51.332;6.778;2023-06-26T16:24:51;30.30;46.20
921;DHT22;447;51.332;6.778;2023-06-26T16:27:17;30.30;46.20
921;DHT22;447;51.332;6.778;2023-06-26T16:29:47;30.30;46.30
921;DHT22;447;51.332;6.778;2023-06-26T16:32:16;30.30;46.00
921;DHT22;447;51.332;6.778;2023-06-26T16:34:41;30.30;45.70
921;DHT22;447;51.332;6.778;2023-06-26T16:37:07;30.30;45.80
921;DHT22;447;51.332;6.778;2023-06-26T16:39:36;30.30;45.70
921;DHT22;447;51.332;6.778;2023-06-26T16:42:02;30.30;45.50
921;DHT22;447;51.332;6.778;2023-06-26T16:44:28;30.30;45.30
921;DHT22;447;51.332;6.778;2023-06-26T16:46:58;30.30;45.30
921;DHT22;447;51.332;6.778;2023-06-26T16:49:27;30.30;45.40
921;DHT22;447;51.332;6.778;2023-06-26T16:51:56;30.30;45.40
921;DHT22;447;51.332;6.778;2023-06-26T16:54:23;30.20;45.10
921;DHT22;447;51.332;6.778;2023-06-26T16:56:53;30.20;45.20
921;DHT22;447;51.332;6.778;2023-06-26T16:59:24;30.20;44.80
921;DHT22;447;51.332;6.778;2023-06-26T17:01:50;30.20;44.90
921;DHT22;447;51.332;6.778;2023-06-26T17:04:16;30.20;44.60
921;DHT22;447;51.332;6.778;2023-06-26T17:06:49;30.20;44.40